sensor_id;sensor_type;location;lat;lon;timestamp;P1;durP1;ratioP1;P2;durP2;ratioP2
18162;SDS011;9206;50.994;4.538;2022-12-07T00:00:02;11.40;;;10.33;;
18162;SDS011;9206;50.994;4.538;2022-12-07T00:02:51;15.37;;;10.80;;
18162;SDS011;9206;50.994;4.538;2022-12-07T00:05:44;12.57;;;11.13;;
18162;SDS011;9206;50.994;4.538;2022-12-07T00:08:38;13.73;;;10.47;;
18162;SDS011;9206;50.994;4.538;2022-12-07T00:11:32;14.80;;;11.27;;
18162;SDS011;9206;50.994;4.538;2022-12-07T00:14:25;18.37;;;11.03;;
18162;SDS011;9206;50.994;4.538;2022-12-07T00:17:16;15.20;;;10.63;;
18162;SDS011;9206;50.994;4.538;2022-12-07T00:20:03;14.37;;;11.13;;
18162;SDS011;9206;50.994;4.538;2022-12-07T00:22:58;14.07;;;11.27;;
18162;SDS011;9206;50.994;4.538;2022-12-07T00:25:52;12.80;;;11.23;;
18162;SDS011;9206;50.994;4.538;2022-12-07T00:28:44;14.37;;;11.27;;
18162;SDS011;9206;50.994;4.538;2022-12-07T00:31:32;18.97;;;12.00;;
18162;SDS011;9206;50.994;4.538;2022-12-07T00:34:26;12.13;;;10.93;;
18162;SDS011;9206;50.994;4.538;2022-12-07T00:37:16;18.63;;;11.57;;
18162;SDS011;9206;50.994;4.538;2022-12-07T00:40:03;15.87;;;11.43;;
18162;SDS011;9206;50.994;4.538;2022-12-07T00:42:53;15.57;;;11.00;;
18162;SDS011;9206;50.994;4.538;2022-12-07T00:45:46;15.77;;;11.93;;
18162;SDS011;9206;50.994;4.538;2022-12-07T00:48:39;13.97;;;11.33;;
18162;SDS011;9206;50.994;4.538;2022-12-07T00:51:33;14.27;;;11.93;;
18162;SDS011;9206;50.994;4.538;2022-12-07T00:54:22;16.57;;;11.47;;
18162;SDS011;9206;50.994;4.538;2022-12-07T00:57:13;13.73;;;11.23;;
18162;SDS011;9206;50.994;4.538;2022-12-07T01:00:08;19.57;;;12.80;;
18162;SDS011;9206;50.994;4.538;2022-12-07T01:03:01;16.13;;;11.63;;
18162;SDS011;9206;50.994;4.538;2022-12-07T01:05:50;15.83;;;13.07;;
18162;SDS011;9206;50.994;4.538;2022-12-07T01:08:39;14.70;;;11.73;;
18162;SDS011;9206;50.994;4.538;2022-12-07T01:11:27;14.13;;;11.63;;
18162;SDS011;9206;50.994;4.538;2022-12-07T01:14:19;12.97;;;11.60;;
18162;SDS011;9206;50.994;4.538;2022-12-07T01:17:13;13.77;;;11.87;;
18162;SDS011;9206;50.994;4.538;2022-12-07T01:20:04;14.80;;;12.13;;
18162;SDS011;9206;50.994;4.538;2022-12-07T01:22:53;14.73;;;11.50;;
18162;SDS011;9206;50.994;4.538;2022-12-07T01:25:53;14.43;;;12.43;;
18162;SDS011;9206;50.994;4.538;2022-12-07T01:28:47;14.83;;;11.17;;
18162;SDS011;9206;50.994;4.538;2022-12-07T01:31:40;14.97;;;12.40;;
18162;SDS011;9206;50.994;4.538;2022-12-07T01:34:35;17.30;;;13.00;;
18162;SDS011;9206;50.994;4.538;2022-12-07T01:37:24;14.33;;;12.83;;
18162;SDS011;9206;50.994;4.538;2022-12-07T01:40:17;16.23;;;11.37;;
18162;SDS011;9206;50.994;4.538;2022-12-07T01:43:14;13.23;;;11.93;;
18162;SDS011;9206;50.994;4.538;2022-12-07T01:46:07;14.83;;;12.37;;
18162;SDS011;9206;50.994;4.538;2022-12-07T01:48:54;19.60;;;13.00;;
18162;SDS011;9206;50.994;4.538;2022-12-07T01:51:48;18.40;;;12.93;;
18162;SDS011;9206;50.994;4.538;2022-12-07T01:54:38;14.70;;;11.60;;
18162;SDS011;9206;50.994;4.538;2022-12-07T01:57:32;15.87;;;12.50;;
18162;SDS011;9206;50.994;4.538;2022-12-07T02:00:29;16.70;;;12.47;;
18162;SDS011;9206;50.994;4.538;2022-12-07T02:03:18;12.63;;;11.37;;
18162;SDS011;9206;50.994;4.538;2022-12-07T02:06:12;14.57;;;12.40;;
18162;SDS011;9206;50.994;4.538;2022-12-07T02:09:07;14.80;;;12.53;;
18162;SDS011;9206;50.994;4.538;2022-12-07T02:12:00;18.40;;;12.27;;
18162;SDS011;9206;50.994;4.538;2022-12-07T02:14:53;13.07;;;11.27;;
18162;SDS011;9206;50.994;4.538;2022-12-07T02:17:42;14.57;;;11.60;;
18162;SDS011;9206;50.994;4.538;2022-12-07T02:20:38;17.17;;;12.10;;
18162;SDS011;9206;50.994;4.538;2022-12-07T02:27:05;14.20;;;10.90;;
18162;SDS011;9206;50.994;4.538;2022-12-07T02:30:11;16.17;;;12.33;;
18162;SDS011;9206;50.994;4.538;2022-12-07T02:33:00;16.03;;;11.37;;
18162;SDS011;9206;50.994;4.538;2022-12-07T02:35:55;15.17;;;12.07;;
18162;SDS011;9206;50.994;4.538;2022-12-07T02:38:53;12.43;;;11.23;;
18162;SDS011;9206;50.994;4.538;2022-12-07T02:41:51;17.90;;;10.90;;
18162;SDS011;9206;50.994;4.538;2022-12-07T02:44:48;11.63;;;10.43;;
18162;SDS011;9206;50.994;4.538;2022-12-07T02:47:38;12.13;;;10.63;;
18162;SDS011;9206;50.994;4.538;2022-12-07T02:50:28;13.40;;;10.53;;
18162;SDS011;9206;50.994;4.538;2022-12-07T02:56:36;16.63;;;11.30;;
18162;SDS011;9206;50.994;4.538;2022-12-07T02:59:30;10.70;;;9.70;;
18162;SDS011;9206;50.994;4.538;2022-12-07T03:02:28;11.87;;;10.63;;
18162;SDS011;9206;50.994;4.538;2022-12-07T03:05:28;10.73;;;9.87;;
18162;SDS011;9206;50.994;4.538;2022-12-07T03:08:29;12.80;;;10.50;;
18162;SDS011;9206;50.994;4.538;2022-12-07T03:14:18;16.33;;;11.67;;
18162;SDS011;9206;50.994;4.538;2022-12-07T03:17:12;13.50;;;11.03;;
18162;SDS011;9206;50.994;4.538;2022-12-07T03:20:03;16.67;;;11.27;;
18162;SDS011;9206;50.994;4.538;2022-12-07T03:23:00;12.23;;;10.53;;
18162;SDS011;9206;50.994;4.538;2022-12-07T03:25:50;13.67;;;11.03;;
18162;SDS011;9206;50.994;4.538;2022-12-07T03:28:51;15.70;;;10.87;;
18162;SDS011;9206;50.994;4.538;2022-12-07T03:31:42;11.73;;;10.57;;
18162;SDS011;9206;50.994;4.538;2022-12-07T03:34:40;13.80;;;10.93;;
18162;SDS011;9206;50.994;4.538;2022-12-07T03:37:34;14.07;;;10.90;;
18162;SDS011;9206;50.994;4.538;2022-12-07T03:40:28;11.37;;;10.33;;
18162;SDS011;9206;50.994;4.538;2022-12-07T03:43:23;12.93;;;10.37;;
18162;SDS011;9206;50.994;4.538;2022-12-07T03:46:15;15.40;;;10.50;;
18162;SDS011;9206;50.994;4.538;2022-12-07T03:49:13;10.53;;;9.43;;
18162;SDS011;9206;50.994;4.538;2022-12-07T03:52:16;18.30;;;9.57;;
18162;SDS011;9206;50.994;4.538;2022-12-07T03:55:10;9.63;;;8.73;;
18162;SDS011;9206;50.994;4.538;2022-12-07T03:58:05;12.77;;;8.90;;
18162;SDS011;9206;50.994;4.538;2022-12-07T04:01:00;14.73;;;9.53;;
18162;SDS011;9206;50.994;4.538;2022-12-07T04:03:48;10.40;;;9.17;;
18162;SDS011;9206;50.994;4.538;2022-12-07T04:06:35;10.13;;;8.40;;
18162;SDS011;9206;50.994;4.538;2022-12-07T04:09:28;10.63;;;9.63;;
18162;SDS011;9206;50.994;4.538;2022-12-07T04:12:16;9.93;;;7.50;;
18162;SDS011;9206;50.994;4.538;2022-12-07T04:15:17;8.43;;;7.57;;
18162;SDS011;9206;50.994;4.538;2022-12-07T04:18:11;13.43;;;7.60;;
18162;SDS011;9206;50.994;4.538;2022-12-07T04:21:00;10.23;;;8.67;;
18162;SDS011;9206;50.994;4.538;2022-12-07T04:26:40;15.07;;;8.20;;
18162;SDS011;9206;50.994;4.538;2022-12-07T04:29:38;9.07;;;8.10;;
18162;SDS011;9206;50.994;4.538;2022-12-07T04:32:33;8.93;;;8.07;;
18162;SDS011;9206;50.994;4.538;2022-12-07T04:35:26;8.30;;;7.50;;
18162;SDS011;9206;50.994;4.538;2022-12-07T04:38:16;11.13;;;8.20;;
18162;SDS011;9206;50.994;4.538;2022-12-07T04:41:07;9.50;;;7.30;;
18162;SDS011;9206;50.994;4.538;2022-12-07T04:43:56;11.30;;;7.93;;
18162;SDS011;9206;50.994;4.538;2022-12-07T04:46:46;12.00;;;7.90;;
18162;SDS011;9206;50.994;4.538;2022-12-07T04:49:35;9.37;;;8.17;;
18162;SDS011;9206;50.994;4.538;2022-12-07T04:52:24;12.23;;;8.37;;
18162;SDS011;9206;50.994;4.538;2022-12-07T04:55:11;9.10;;;7.73;;
18162;SDS011;9206;50.994;4.538;2022-12-07T04:57:58;8.77;;;7.83;;
18162;SDS011;9206;50.994;4.538;2022-12-07T05:00:46;9.07;;;7.93;;
18162;SDS011;9206;50.994;4.538;2022-12-07T05:03:34;8.17;;;7.50;;
18162;SDS011;9206;50.994;4.538;2022-12-07T05:06:25;9.53;;;8.00;;
18162;SDS011;9206;50.994;4.538;2022-12-07T05:09:15;8.40;;;7.70;;
18162;SDS011;9206;50.994;4.538;2022-12-07T05:12:05;17.70;;;8.70;;
18162;SDS011;9206;50.994;4.538;2022-12-07T05:14:55;22.57;;;9.43;;
18162;SDS011;9206;50.994;4.538;2022-12-07T05:17:49;16.03;;;9.10;;
18162;SDS011;9206;50.994;4.538;2022-12-07T05:20:39;14.33;;;8.70;;
18162;SDS011;9206;50.994;4.538;2022-12-07T05:23:28;12.80;;;8.60;;
18162;SDS011;9206;50.994;4.538;2022-12-07T05:26:16;13.17;;;8.37;;
18162;SDS011;9206;50.994;4.538;2022-12-07T05:29:05;12.73;;;7.73;;
18162;SDS011;9206;50.994;4.538;2022-12-07T05:31:53;10.87;;;8.60;;
18162;SDS011;9206;50.994;4.538;2022-12-07T05:34:46;16.93;;;8.87;;
18162;SDS011;9206;50.994;4.538;2022-12-07T05:37:33;12.27;;;8.60;;
18162;SDS011;9206;50.994;4.538;2022-12-07T05:40:28;16.73;;;8.07;;
18162;SDS011;9206;50.994;4.538;2022-12-07T05:43:16;17.00;;;8.60;;
18162;SDS011;9206;50.994;4.538;2022-12-07T05:46:04;10.43;;;8.10;;
18162;SDS011;9206;50.994;4.538;2022-12-07T05:48:52;10.37;;;7.67;;
18162;SDS011;9206;50.994;4.538;2022-12-07T05:57:47;13.33;;;8.60;;
18162;SDS011;9206;50.994;4.538;2022-12-07T06:00:53;14.23;;;8.53;;
18162;SDS011;9206;50.994;4.538;2022-12-07T06:03:44;11.40;;;8.03;;
18162;SDS011;9206;50.994;4.538;2022-12-07T06:06:37;10.17;;;8.93;;
18162;SDS011;9206;50.994;4.538;2022-12-07T06:09:24;14.70;;;8.27;;
18162;SDS011;9206;50.994;4.538;2022-12-07T06:12:15;14.70;;;8.30;;
18162;SDS011;9206;50.994;4.538;2022-12-07T06:15:28;9.93;;;7.87;;
18162;SDS011;9206;50.994;4.538;2022-12-07T06:18:15;13.57;;;8.20;;
18162;SDS011;9206;50.994;4.538;2022-12-07T06:21:03;12.40;;;9.03;;
18162;SDS011;9206;50.994;4.538;2022-12-07T06:23:51;17.83;;;10.00;;
18162;SDS011;9206;50.994;4.538;2022-12-07T06:29:31;11.43;;;7.73;;
18162;SDS011;9206;50.994;4.538;2022-12-07T06:32:23;9.93;;;8.07;;
18162;SDS011;9206;50.994;4.538;2022-12-07T06:35:10;11.53;;;7.60;;
18162;SDS011;9206;50.994;4.538;2022-12-07T06:38:04;10.30;;;7.20;;
18162;SDS011;9206;50.994;4.538;2022-12-07T06:40:51;13.37;;;8.60;;
18162;SDS011;9206;50.994;4.538;2022-12-07T06:43:39;16.50;;;8.37;;
18162;SDS011;9206;50.994;4.538;2022-12-07T06:46:27;11.83;;;8.60;;
18162;SDS011;9206;50.994;4.538;2022-12-07T06:49:16;12.80;;;8.53;;
18162;SDS011;9206;50.994;4.538;2022-12-07T06:52:03;9.07;;;7.77;;
18162;SDS011;9206;50.994;4.538;2022-12-07T06:54:51;10.43;;;8.80;;
18162;SDS011;9206;50.994;4.538;2022-12-07T06:57:38;12.40;;;8.87;;
18162;SDS011;9206;50.994;4.538;2022-12-07T07:00:25;13.27;;;8.60;;
18162;SDS011;9206;50.994;4.538;2022-12-07T07:03:13;12.30;;;9.63;;
18162;SDS011;9206;50.994;4.538;2022-12-07T07:06:01;11.37;;;9.23;;
18162;SDS011;9206;50.994;4.538;2022-12-07T07:08:49;12.30;;;9.00;;
18162;SDS011;9206;50.994;4.538;2022-12-07T07:11:36;22.23;;;11.10;;
18162;SDS011;9206;50.994;4.538;2022-12-07T07:14:23;15.77;;;9.40;;
18162;SDS011;9206;50.994;4.538;2022-12-07T07:17:11;16.43;;;8.93;;
18162;SDS011;9206;50.994;4.538;2022-12-07T07:19:58;15.13;;;8.27;;
18162;SDS011;9206;50.994;4.538;2022-12-07T07:22:46;15.47;;;8.13;;
18162;SDS011;9206;50.994;4.538;2022-12-07T07:25:34;8.23;;;7.43;;
18162;SDS011;9206;50.994;4.538;2022-12-07T07:28:21;12.67;;;8.30;;
18162;SDS011;9206;50.994;4.538;2022-12-07T07:31:09;9.20;;;8.30;;
18162;SDS011;9206;50.994;4.538;2022-12-07T07:33:56;14.93;;;8.43;;
18162;SDS011;9206;50.994;4.538;2022-12-07T07:36:43;9.97;;;8.13;;
18162;SDS011;9206;50.994;4.538;2022-12-07T07:39:32;16.60;;;9.37;;
18162;SDS011;9206;50.994;4.538;2022-12-07T07:42:19;11.20;;;9.00;;
18162;SDS011;9206;50.994;4.538;2022-12-07T07:45:07;14.40;;;8.47;;
18162;SDS011;9206;50.994;4.538;2022-12-07T07:47:55;11.43;;;8.60;;
18162;SDS011;9206;50.994;4.538;2022-12-07T07:50:42;10.20;;;9.07;;
18162;SDS011;9206;50.994;4.538;2022-12-07T07:53:30;12.93;;;8.73;;
18162;SDS011;9206;50.994;4.538;2022-12-07T07:56:19;17.77;;;9.53;;
18162;SDS011;9206;50.994;4.538;2022-12-07T07:59:06;21.27;;;10.67;;
18162;SDS011;9206;50.994;4.538;2022-12-07T08:01:53;33.10;;;12.07;;
18162;SDS011;9206;50.994;4.538;2022-12-07T08:04:40;28.47;;;10.70;;
18162;SDS011;9206;50.994;4.538;2022-12-07T08:07:30;26.00;;;10.10;;
18162;SDS011;9206;50.994;4.538;2022-12-07T08:10:17;21.50;;;10.23;;
18162;SDS011;9206;50.994;4.538;2022-12-07T08:13:05;18.90;;;10.27;;
18162;SDS011;9206;50.994;4.538;2022-12-07T08:15:59;11.57;;;9.50;;
18162;SDS011;9206;50.994;4.538;2022-12-07T08:18:50;19.63;;;10.57;;
18162;SDS011;9206;50.994;4.538;2022-12-07T08:21:37;16.80;;;10.13;;
18162;SDS011;9206;50.994;4.538;2022-12-07T08:24:25;16.97;;;11.77;;
18162;SDS011;9206;50.994;4.538;2022-12-07T08:27:12;26.63;;;10.97;;
18162;SDS011;9206;50.994;4.538;2022-12-07T08:30:01;21.50;;;10.77;;
18162;SDS011;9206;50.994;4.538;2022-12-07T08:32:48;11.27;;;9.33;;
18162;SDS011;9206;50.994;4.538;2022-12-07T08:35:36;10.23;;;9.23;;
18162;SDS011;9206;50.994;4.538;2022-12-07T08:38:23;13.87;;;9.30;;
18162;SDS011;9206;50.994;4.538;2022-12-07T08:41:10;10.57;;;8.30;;
18162;SDS011;9206;50.994;4.538;2022-12-07T08:43:58;9.87;;;8.87;;
18162;SDS011;9206;50.994;4.538;2022-12-07T08:46:47;10.03;;;8.40;;
18162;SDS011;9206;50.994;4.538;2022-12-07T08:49:38;8.57;;;7.63;;
18162;SDS011;9206;50.994;4.538;2022-12-07T08:52:27;12.83;;;7.70;;
18162;SDS011;9206;50.994;4.538;2022-12-07T08:55:16;11.27;;;7.80;;
18162;SDS011;9206;50.994;4.538;2022-12-07T08:58:03;8.90;;;7.57;;
18162;SDS011;9206;50.994;4.538;2022-12-07T09:00:50;11.03;;;7.67;;
18162;SDS011;9206;50.994;4.538;2022-12-07T09:03:39;8.77;;;7.40;;
18162;SDS011;9206;50.994;4.538;2022-12-07T09:06:26;8.07;;;7.00;;
18162;SDS011;9206;50.994;4.538;2022-12-07T09:09:14;9.17;;;7.50;;
18162;SDS011;9206;50.994;4.538;2022-12-07T09:12:03;8.53;;;7.63;;
18162;SDS011;9206;50.994;4.538;2022-12-07T09:14:50;7.67;;;6.97;;
18162;SDS011;9206;50.994;4.538;2022-12-07T09:17:37;9.13;;;6.70;;
18162;SDS011;9206;50.994;4.538;2022-12-07T09:20:27;9.73;;;7.67;;
18162;SDS011;9206;50.994;4.538;2022-12-07T09:23:14;13.40;;;7.10;;
18162;SDS011;9206;50.994;4.538;2022-12-07T09:26:02;17.13;;;7.13;;
18162;SDS011;9206;50.994;4.538;2022-12-07T09:28:51;15.07;;;7.17;;
18162;SDS011;9206;50.994;4.538;2022-12-07T09:31:38;18.03;;;7.13;;
18162;SDS011;9206;50.994;4.538;2022-12-07T09:34:25;6.27;;;5.67;;
18162;SDS011;9206;50.994;4.538;2022-12-07T09:37:14;12.63;;;5.50;;
18162;SDS011;9206;50.994;4.538;2022-12-07T09:40:02;11.27;;;6.10;;
18162;SDS011;9206;50.994;4.538;2022-12-07T09:42:51;18.90;;;6.07;;
18162;SDS011;9206;50.994;4.538;2022-12-07T09:45:40;8.10;;;5.50;;
18162;SDS011;9206;50.994;4.538;2022-12-07T09:48:29;5.40;;;4.90;;
18162;SDS011;9206;50.994;4.538;2022-12-07T09:51:19;9.87;;;5.40;;
18162;SDS011;9206;50.994;4.538;2022-12-07T09:54:09;6.07;;;4.57;;
18162;SDS011;9206;50.994;4.538;2022-12-07T09:56:59;10.27;;;5.17;;
18162;SDS011;9206;50.994;4.538;2022-12-07T09:59:47;5.97;;;4.33;;
18162;SDS011;9206;50.994;4.538;2022-12-07T10:02:37;4.63;;;4.23;;
18162;SDS011;9206;50.994;4.538;2022-12-07T10:05:30;4.27;;;3.50;;
18162;SDS011;9206;50.994;4.538;2022-12-07T10:08:22;7.87;;;4.07;;
18162;SDS011;9206;50.994;4.538;2022-12-07T10:11:10;4.27;;;3.70;;
18162;SDS011;9206;50.994;4.538;2022-12-07T10:14:10;4.07;;;3.77;;
18162;SDS011;9206;50.994;4.538;2022-12-07T10:16:58;5.37;;;4.03;;
18162;SDS011;9206;50.994;4.538;2022-12-07T10:19:46;6.83;;;3.93;;
18162;SDS011;9206;50.994;4.538;2022-12-07T10:22:33;6.90;;;4.13;;
18162;SDS011;9206;50.994;4.538;2022-12-07T10:25:21;5.30;;;3.70;;
18162;SDS011;9206;50.994;4.538;2022-12-07T10:28:13;3.23;;;2.70;;
18162;SDS011;9206;50.994;4.538;2022-12-07T10:31:03;6.32;;;3.33;;
18162;SDS011;9206;50.994;4.538;2022-12-07T10:34:03;9.50;;;3.30;;
18162;SDS011;9206;50.994;4.538;2022-12-07T10:36:50;4.27;;;3.47;;
18162;SDS011;9206;50.994;4.538;2022-12-07T10:39:40;5.23;;;3.37;;
18162;SDS011;9206;50.994;4.538;2022-12-07T10:42:29;8.67;;;3.80;;
18162;SDS011;9206;50.994;4.538;2022-12-07T10:45:19;4.90;;;3.53;;
18162;SDS011;9206;50.994;4.538;2022-12-07T10:48:08;4.60;;;3.47;;
18162;SDS011;9206;50.994;4.538;2022-12-07T10:51:04;4.57;;;3.90;;
18162;SDS011;9206;50.994;4.538;2022-12-07T10:54:00;4.20;;;3.80;;
18162;SDS011;9206;50.994;4.538;2022-12-07T10:57:06;4.93;;;3.80;;
18162;SDS011;9206;50.994;4.538;2022-12-07T11:00:10;5.30;;;3.30;;
18162;SDS011;9206;50.994;4.538;2022-12-07T11:03:15;9.57;;;3.83;;
18162;SDS011;9206;50.994;4.538;2022-12-07T11:06:14;6.00;;;4.10;;
18162;SDS011;9206;50.994;4.538;2022-12-07T11:09:19;5.20;;;3.27;;
18162;SDS011;9206;50.994;4.538;2022-12-07T11:12:33;5.93;;;3.63;;
18162;SDS011;9206;50.994;4.538;2022-12-07T11:15:45;4.60;;;3.40;;
18162;SDS011;9206;50.994;4.538;2022-12-07T11:18:58;5.63;;;3.50;;
18162;SDS011;9206;50.994;4.538;2022-12-07T11:21:55;4.43;;;3.90;;
18162;SDS011;9206;50.994;4.538;2022-12-07T11:24:46;6.80;;;3.37;;
18162;SDS011;9206;50.994;4.538;2022-12-07T11:27:40;4.00;;;3.20;;
18162;SDS011;9206;50.994;4.538;2022-12-07T11:30:36;8.53;;;3.27;;
18162;SDS011;9206;50.994;4.538;2022-12-07T11:33:27;3.77;;;3.10;;
18162;SDS011;9206;50.994;4.538;2022-12-07T11:36:30;4.38;;;3.10;;
18162;SDS011;9206;50.994;4.538;2022-12-07T11:39:23;4.57;;;2.75;;
18162;SDS011;9206;50.994;4.538;2022-12-07T11:42:19;5.03;;;3.20;;
18162;SDS011;9206;50.994;4.538;2022-12-07T11:45:10;5.25;;;3.30;;
18162;SDS011;9206;50.994;4.538;2022-12-07T11:48:02;4.60;;;3.22;;
18162;SDS011;9206;50.994;4.538;2022-12-07T11:50:54;5.95;;;3.90;;
18162;SDS011;9206;50.994;4.538;2022-12-07T11:53:46;10.80;;;4.60;;
18162;SDS011;9206;50.994;4.538;2022-12-07T11:56:35;5.43;;;3.20;;
18162;SDS011;9206;50.994;4.538;2022-12-07T11:59:23;6.03;;;3.33;;
18162;SDS011;9206;50.994;4.538;2022-12-07T12:02:18;4.87;;;3.27;;
18162;SDS011;9206;50.994;4.538;2022-12-07T12:05:15;8.20;;;3.37;;
18162;SDS011;9206;50.994;4.538;2022-12-07T12:08:15;8.33;;;4.27;;
18162;SDS011;9206;50.994;4.538;2022-12-07T12:11:11;7.47;;;2.97;;
18162;SDS011;9206;50.994;4.538;2022-12-07T12:14:18;9.30;;;3.57;;
18162;SDS011;9206;50.994;4.538;2022-12-07T12:17:20;6.07;;;2.90;;
18162;SDS011;9206;50.994;4.538;2022-12-07T12:20:26;9.97;;;3.80;;
18162;SDS011;9206;50.994;4.538;2022-12-07T12:23:17;3.30;;;3.00;;
18162;SDS011;9206;50.994;4.538;2022-12-07T12:26:08;4.20;;;2.50;;
18162;SDS011;9206;50.994;4.538;2022-12-07T12:29:05;5.27;;;3.43;;
18162;SDS011;9206;50.994;4.538;2022-12-07T12:32:04;6.70;;;3.00;;
18162;SDS011;9206;50.994;4.538;2022-12-07T12:35:00;4.73;;;2.40;;
18162;SDS011;9206;50.994;4.538;2022-12-07T12:38:26;2.57;;;2.20;;
18162;SDS011;9206;50.994;4.538;2022-12-07T12:54:24;3.97;;;2.17;;
18162;SDS011;9206;50.994;4.538;2022-12-07T12:57:15;4.43;;;2.40;;
18162;SDS011;9206;50.994;4.538;2022-12-07T13:00:15;2.47;;;1.83;;
18162;SDS011;9206;50.994;4.538;2022-12-07T13:03:05;4.73;;;2.60;;
18162;SDS011;9206;50.994;4.538;2022-12-07T13:06:19;2.07;;;1.90;;
18162;SDS011;9206;50.994;4.538;2022-12-07T13:09:20;6.27;;;2.97;;
18162;SDS011;9206;50.994;4.538;2022-12-07T13:12:11;8.23;;;2.53;;
18162;SDS011;9206;50.994;4.538;2022-12-07T13:15:00;2.90;;;2.67;;
18162;SDS011;9206;50.994;4.538;2022-12-07T13:17:58;2.77;;;2.50;;
18162;SDS011;9206;50.994;4.538;2022-12-07T13:20:53;4.97;;;2.53;;
18162;SDS011;9206;50.994;4.538;2022-12-07T13:23:52;5.83;;;2.60;;
18162;SDS011;9206;50.994;4.538;2022-12-07T13:26:42;3.33;;;2.10;;
18162;SDS011;9206;50.994;4.538;2022-12-07T13:29:30;3.17;;;2.43;;
18162;SDS011;9206;50.994;4.538;2022-12-07T13:32:24;3.43;;;2.43;;
18162;SDS011;9206;50.994;4.538;2022-12-07T13:35:28;7.33;;;2.83;;
18162;SDS011;9206;50.994;4.538;2022-12-07T13:38:24;4.23;;;2.30;;
18162;SDS011;9206;50.994;4.538;2022-12-07T13:41:15;4.87;;;1.93;;
18162;SDS011;9206;50.994;4.538;2022-12-07T13:44:05;2.00;;;1.90;;
18162;SDS011;9206;50.994;4.538;2022-12-07T13:47:01;3.30;;;2.27;;
18162;SDS011;9206;50.994;4.538;2022-12-07T13:49:54;3.70;;;2.33;;
18162;SDS011;9206;50.994;4.538;2022-12-07T13:52:43;2.30;;;2.07;;
18162;SDS011;9206;50.994;4.538;2022-12-07T13:55:32;9.47;;;1.87;;
18162;SDS011;9206;50.994;4.538;2022-12-07T13:58:20;3.33;;;1.90;;
18162;SDS011;9206;50.994;4.538;2022-12-07T14:01:08;2.37;;;2.13;;
18162;SDS011;9206;50.994;4.538;2022-12-07T14:07:21;3.47;;;2.50;;
18162;SDS011;9206;50.994;4.538;2022-12-07T14:10:22;2.63;;;2.40;;
18162;SDS011;9206;50.994;4.538;2022-12-07T14:13:22;3.53;;;2.40;;
18162;SDS011;9206;50.994;4.538;2022-12-07T14:16:18;3.13;;;2.93;;
18162;SDS011;9206;50.994;4.538;2022-12-07T14:22:29;2.40;;;2.20;;
18162;SDS011;9206;50.994;4.538;2022-12-07T14:25:21;2.90;;;2.63;;
18162;SDS011;9206;50.994;4.538;2022-12-07T14:28:23;3.50;;;3.20;;
18162;SDS011;9206;50.994;4.538;2022-12-07T14:31:17;9.93;;;3.73;;
18162;SDS011;9206;50.994;4.538;2022-12-07T14:34:11;3.63;;;3.30;;
18162;SDS011;9206;50.994;4.538;2022-12-07T14:36:58;4.67;;;4.13;;
18162;SDS011;9206;50.994;4.538;2022-12-07T14:39:49;5.47;;;4.63;;
18162;SDS011;9206;50.994;4.538;2022-12-07T14:42:36;4.43;;;4.03;;
18162;SDS011;9206;50.994;4.538;2022-12-07T14:45:24;4.60;;;4.17;;
18162;SDS011;9206;50.994;4.538;2022-12-07T14:48:12;4.30;;;4.00;;
18162;SDS011;9206;50.994;4.538;2022-12-07T14:51:01;3.20;;;2.90;;
18162;SDS011;9206;50.994;4.538;2022-12-07T14:53:50;4.43;;;4.13;;
18162;SDS011;9206;50.994;4.538;2022-12-07T14:56:39;3.20;;;3.00;;
18162;SDS011;9206;50.994;4.538;2022-12-07T14:59:27;5.67;;;3.00;;
18162;SDS011;9206;50.994;4.538;2022-12-07T15:02:16;3.20;;;2.90;;
18162;SDS011;9206;50.994;4.538;2022-12-07T15:05:03;4.43;;;3.27;;
18162;SDS011;9206;50.994;4.538;2022-12-07T15:07:51;3.03;;;2.93;;
18162;SDS011;9206;50.994;4.538;2022-12-07T15:10:38;3.37;;;3.07;;
18162;SDS011;9206;50.994;4.538;2022-12-07T15:13:25;3.80;;;3.17;;
18162;SDS011;9206;50.994;4.538;2022-12-07T15:16:30;3.13;;;3.03;;
18162;SDS011;9206;50.994;4.538;2022-12-07T15:19:19;2.83;;;2.70;;
18162;SDS011;9206;50.994;4.538;2022-12-07T15:22:11;3.23;;;2.93;;
18162;SDS011;9206;50.994;4.538;2022-12-07T15:24:58;3.10;;;2.90;;
18162;SDS011;9206;50.994;4.538;2022-12-07T15:27:45;2.80;;;2.60;;
18162;SDS011;9206;50.994;4.538;2022-12-07T15:30:32;2.63;;;2.43;;
18162;SDS011;9206;50.994;4.538;2022-12-07T15:33:20;2.73;;;2.53;;
18162;SDS011;9206;50.994;4.538;2022-12-07T15:36:08;2.13;;;2.03;;
18162;SDS011;9206;50.994;4.538;2022-12-07T15:39:06;3.70;;;2.80;;
18162;SDS011;9206;50.994;4.538;2022-12-07T15:41:57;3.97;;;3.00;;
18162;SDS011;9206;50.994;4.538;2022-12-07T15:44:46;3.10;;;2.73;;
18162;SDS011;9206;50.994;4.538;2022-12-07T15:47:51;2.50;;;2.30;;
18162;SDS011;9206;50.994;4.538;2022-12-07T15:50:40;3.53;;;2.07;;
18162;SDS011;9206;50.994;4.538;2022-12-07T15:53:29;6.63;;;2.70;;
18162;SDS011;9206;50.994;4.538;2022-12-07T15:56:16;2.87;;;2.37;;
18162;SDS011;9206;50.994;4.538;2022-12-07T15:59:03;2.53;;;2.33;;
18162;SDS011;9206;50.994;4.538;2022-12-07T16:01:50;2.47;;;2.27;;
18162;SDS011;9206;50.994;4.538;2022-12-07T16:04:38;5.77;;;3.40;;
18162;SDS011;9206;50.994;4.538;2022-12-07T16:07:25;3.77;;;2.63;;
18162;SDS011;9206;50.994;4.538;2022-12-07T16:10:14;4.60;;;2.40;;
18162;SDS011;9206;50.994;4.538;2022-12-07T16:13:02;2.43;;;2.23;;
18162;SDS011;9206;50.994;4.538;2022-12-07T16:15:50;3.27;;;2.17;;
18162;SDS011;9206;50.994;4.538;2022-12-07T16:18:37;7.57;;;2.90;;
18162;SDS011;9206;50.994;4.538;2022-12-07T16:21:25;3.63;;;2.30;;
18162;SDS011;9206;50.994;4.538;2022-12-07T16:24:12;3.70;;;2.47;;
18162;SDS011;9206;50.994;4.538;2022-12-07T16:27:02;4.00;;;2.90;;
18162;SDS011;9206;50.994;4.538;2022-12-07T16:29:49;6.57;;;2.80;;
18162;SDS011;9206;50.994;4.538;2022-12-07T16:32:36;2.77;;;2.50;;
18162;SDS011;9206;50.994;4.538;2022-12-07T16:35:23;3.63;;;2.43;;
18162;SDS011;9206;50.994;4.538;2022-12-07T16:38:11;3.93;;;2.57;;
18162;SDS011;9206;50.994;4.538;2022-12-07T16:40:59;2.73;;;2.40;;
18162;SDS011;9206;50.994;4.538;2022-12-07T16:43:48;2.83;;;2.27;;
18162;SDS011;9206;50.994;4.538;2022-12-07T16:46:36;3.27;;;2.30;;
18162;SDS011;9206;50.994;4.538;2022-12-07T16:49:23;5.10;;;3.00;;
18162;SDS011;9206;50.994;4.538;2022-12-07T16:52:10;3.33;;;3.00;;
18162;SDS011;9206;50.994;4.538;2022-12-07T16:54:58;4.57;;;2.80;;
18162;SDS011;9206;50.994;4.538;2022-12-07T16:57:45;4.40;;;2.87;;
18162;SDS011;9206;50.994;4.538;2022-12-07T17:00:35;4.90;;;2.33;;
18162;SDS011;9206;50.994;4.538;2022-12-07T17:03:23;2.63;;;2.43;;
18162;SDS011;9206;50.994;4.538;2022-12-07T17:06:13;3.90;;;2.60;;
18162;SDS011;9206;50.994;4.538;2022-12-07T17:09:04;3.67;;;2.53;;
18162;SDS011;9206;50.994;4.538;2022-12-07T17:11:54;3.07;;;2.60;;
18162;SDS011;9206;50.994;4.538;2022-12-07T17:14:42;2.97;;;2.67;;
18162;SDS011;9206;50.994;4.538;2022-12-07T17:17:51;3.90;;;2.70;;
18162;SDS011;9206;50.994;4.538;2022-12-07T17:20:39;3.47;;;2.80;;
18162;SDS011;9206;50.994;4.538;2022-12-07T17:23:27;3.87;;;3.30;;
18162;SDS011;9206;50.994;4.538;2022-12-07T17:26:15;3.43;;;3.13;;
18162;SDS011;9206;50.994;4.538;2022-12-07T17:29:04;3.13;;;2.77;;
18162;SDS011;9206;50.994;4.538;2022-12-07T17:31:55;3.77;;;2.43;;
18162;SDS011;9206;50.994;4.538;2022-12-07T17:34:51;4.57;;;2.60;;
18162;SDS011;9206;50.994;4.538;2022-12-07T17:37:39;5.10;;;3.00;;
18162;SDS011;9206;50.994;4.538;2022-12-07T17:40:29;4.03;;;2.63;;
18162;SDS011;9206;50.994;4.538;2022-12-07T17:43:18;3.50;;;2.87;;
18162;SDS011;9206;50.994;4.538;2022-12-07T17:46:07;3.87;;;3.43;;
18162;SDS011;9206;50.994;4.538;2022-12-07T17:49:01;3.37;;;3.17;;
18162;SDS011;9206;50.994;4.538;2022-12-07T17:51:57;5.40;;;3.67;;
18162;SDS011;9206;50.994;4.538;2022-12-07T17:55:04;3.40;;;3.13;;
18162;SDS011;9206;50.994;4.538;2022-12-07T17:57:51;3.43;;;3.23;;
18162;SDS011;9206;50.994;4.538;2022-12-07T18:00:40;5.83;;;3.73;;